Flight Track Log - Related Links

Times and Time Zones

All times are in EDT time to prevent confusion due to time zone crossing. See the EJA922 flight status page for this flight to view local times or setup timezone preferences in your user account.

Time Position Orientation Groundspeed Altitude Reporting Facility
EDT Latitude Longitude Course Direction KTS MPH feet Rate Location/Type
Thu 11:15:32 AM 36.6000 -121.8833 90° East 204 235 1,900  Level Northern Cal TRACON
Thu 11:16:27 AM 36.6500 -121.9167 332° Northwest 244 281 4,000 2,087 Climbing Northern Cal TRACON
Thu 11:17:27 AM 36.6833 -121.8333 63° Northeast 261 300 5,900 2,067 Climbing Northern Cal TRACON
Thu 11:19:27 AM 36.7000 -121.6333 84° East 280 322 10,200 1,967 Climbing Northern Cal TRACON
Thu 11:20:27 AM 36.7000 -121.5333 90° East 313 360 11,800 1,572 Climbing Northern Cal TRACON
Thu 11:21:00 AM 36.7000 -120.8434 90° East  Level FlightAware Approximate
Thu 11:21:52 AM 36.6981 -121.3733 91° East 322 371 14,000  Level Oakland Center
Thu 11:22:54 AM 36.7025 -121.2450 87° East 351 404 15,600 1,463 Climbing Oakland Center
Thu 11:23:55 AM 36.7061 -121.1147 88° East 364 419 17,000 1,317 Climbing Oakland Center
Thu 11:24:57 AM 36.7094 -120.9831 88° East 373 429 18,300 1,366 Climbing Oakland Center
Thu 11:25:58 AM 36.7131 -120.8475 88° East 385 443 19,800 1,366 Climbing Oakland Center
Thu 11:27:00 AM 36.7428 -120.7153 74° East 403 464 21,100 1,122 Climbing Oakland Center
Thu 11:28:01 AM 36.7964 -120.5967 61° Northeast 394 453 22,100 1,076 Climbing Oakland Center
Thu 11:30:04 AM 36.9222 -120.3169 61° Northeast 418 481 24,400 1,076 Climbing Oakland Center
Thu 11:31:05 AM 36.9403 -120.1742 81° East 426 490 25,400 927 Climbing Oakland Center
Thu 11:32:07 AM 36.9417 -120.0208 89° East 436 502 26,300 976 Climbing Oakland Center
Thu 11:33:08 AM 36.9400 -119.8656 91° East 443 510 27,400 1,122 Climbing Oakland Center
Thu 11:34:10 AM 36.9411 -119.7083 89° East 449 517 28,600 1,268 Climbing Oakland Center
Thu 11:35:11 AM 36.9689 -119.5589 77° East 444 511 30,000 1,220 Climbing Oakland Center
Thu 11:36:13 AM 37.0425 -119.4322 54° Northeast 450 518 31,100 1,073 Climbing Oakland Center
Thu 11:37:14 AM 37.1450 -119.3422 35° Northeast 454 522 32,200 1,122 Climbing Oakland Center
Thu 11:38:16 AM 37.2847 -119.2608 25° Northeast 459 528 33,400 1,122 Climbing Oakland Center
Thu 11:39:17 AM 37.3661 -119.1383 50° Northeast 460 529 34,500 976 Climbing Oakland Center
Thu 11:40:19 AM 37.4322 -118.9986 59° Northeast 462 532 35,400 878 Climbing Oakland Center
Thu 11:41:20 AM 37.5000 -118.8561 59° Northeast 470 541 36,300 878 Climbing Oakland Center
Thu 11:42:22 AM 37.5667 -118.7156 59° Northeast 476 548 37,200 1,024 Climbing Oakland Center
Thu 11:43:23 AM 37.6350 -118.5700 59° Northeast 479 551 38,400 878 Climbing Oakland Center
Thu 11:44:25 AM 37.7008 -118.4258 60° Northeast 478 550 39,000 293 Climbing Oakland Center
Thu 11:45:26 AM 37.7850 -118.2458 59° Northeast 490 564 39,000  Level Oakland Center
Thu 11:46:28 AM 37.8567 -118.0922 59° Northeast 501 577 39,000 49 Level Oakland Center
Thu 11:47:29 AM 37.9278 -117.9406 59° Northeast 504 580 39,100 585 Climbing Oakland Center
Thu 11:48:31 AM 37.9939 -117.7892 61° Northeast 495 570 40,200 927 Climbing Oakland Center
Thu 11:49:32 AM 38.0169 -117.6267 80° East 477 549 41,000 390 Climbing Oakland Center
Thu 11:50:34 AM 38.0303 -117.4592 84° East 477 549 41,000  Level Oakland Center
Thu 11:51:35 AM 38.0419 -117.2897 85° East 484 557 41,000  Level Oakland Center
Thu 11:52:37 AM 38.0592 -117.0867 84° East 499 574 41,000  Level Oakland Center
Thu 11:53:38 AM 38.0739 -116.9217 83° East 485 558 41,000  Level Oakland Center
Thu 11:54:39 AM 38.0875 -116.7544 84° East 481 554 41,000  Level Salt Lake Center
Thu 11:55:41 AM 38.1006 -116.5858 84° East 481 554 41,000  Level Salt Lake Center
Thu 11:56:43 AM 38.1133 -116.4214 84° East 476 548 41,000  Level Salt Lake Center
Thu 11:57:45 AM 38.1261 -116.2556 84° East 474 545 41,000  Level Salt Lake Center
Thu 11:58:47 AM 38.1406 -116.0572 85° East 472 543 41,000  Level Salt Lake Center
Thu 11:59:49 AM 38.1525 -115.8903 85° East 473 544 41,000  Level Salt Lake Center
Thu 12:00:51 PM 38.1636 -115.7181 85° East 484 557 41,000  Level Salt Lake Center
Thu 12:01:53 PM 38.1750 -115.5503 85° East 484 557 41,000  Level Salt Lake Center
Thu 12:02:55 PM 38.1864 -115.3831 85° East 477 549 41,000  Level Salt Lake Center
Thu 12:03:57 PM 38.2003 -115.2083 84° East 487 560 41,000  Level Salt Lake Center
Thu 12:04:59 PM 38.2106 -115.0356 86° East 488 562 41,000  Level Salt Lake Center
Thu 12:06:01 PM 38.2219 -114.8311 86° East 487 560 41,000  Level Salt Lake Center
Thu 12:07:03 PM 38.2331 -114.6675 85° East 475 547 41,000  Level Salt Lake Center
Thu 12:08:05 PM 38.2411 -114.5039 86° East 468 539 41,000  Level Salt Lake Center
Thu 12:09:08 PM 38.2519 -114.3353 85° East 470 541 41,000  Level Salt Lake Center
Thu 12:10:10 PM 38.2697 -114.1678 82° East 473 544 41,000  Level Salt Lake Center
Thu 12:11:12 PM 38.2828 -114.0036 84° East 473 544 41,000 355 Level Salt Lake Center
Thu 12:13:16 PM 38.3117 -113.6439 84° East 468 539 42,100 613 Climbing Salt Lake Center
Thu 12:14:18 PM 38.3244 -113.4819 84° East 465 535 42,900 435 Climbing Salt Lake Center
Thu 12:15:20 PM 38.3367 -113.3197 84° East 463 533 43,000 48 Climbing Salt Lake Center
Thu 12:16:22 PM 38.3500 -113.1544 84° East 463 533 43,000  Level Salt Lake Center
Thu 12:17:24 PM 38.3644 -112.9867 84° East 468 539 43,000  Level Salt Lake Center
Thu 12:18:26 PM 38.3956 -112.8225 76° East 478 550 43,000  Level Salt Lake Center
Thu 12:19:28 PM 38.4308 -112.6275 77° East 471 542 43,000  Level Salt Lake Center
Thu 12:20:30 PM 38.4606 -112.4622 77° East 472 543 43,000  Level Salt Lake Center
Thu 12:21:33 PM 38.4908 -112.2956 77° East 482 555 43,000  Level Salt Lake Center
Thu 12:23:37 PM 38.5489 -111.9656 77° East 477 549 43,000  Level Salt Lake Center
Thu 12:24:39 PM 38.5778 -111.7981 78° East 478 550 43,000  Level Salt Lake Center
Thu 12:26:43 PM 38.6419 -111.4267 77° East 487 560 43,000  Level Denver Center
Thu 12:27:45 PM 38.6700 -111.2603 78° East 486 559 43,000  Level Denver Center
Thu 12:28:47 PM 38.6981 -111.0906 78° East 484 557 43,000  Level Salt Lake Center
Thu 12:30:51 PM 38.7547 -110.7531 78° East 485 558 43,000  Level Salt Lake Center
Thu 12:31:53 PM 38.7881 -110.5486 78° East 487 560 43,000  Level Salt Lake Center
Thu 12:32:55 PM 38.8156 -110.3783 78° East 487 560 43,000  Level Salt Lake Center
Thu 12:33:58 PM 38.8425 -110.2100 78° East 484 557 43,000  Level Salt Lake Center
Thu 12:36:02 PM 38.8953 -109.8708 79° East 485 558 43,000  Level Salt Lake Center
Thu 12:37:04 PM 38.9222 -109.6989 79° East 490 564 43,000  Level Salt Lake Center
Thu 12:38:06 PM 38.9544 -109.4928 79° East 491 565 43,000  Level Salt Lake Center
Thu 12:39:08 PM 38.9806 -109.3192 79° East 491 565 43,000  Level Denver Center
Thu 12:40:10 PM 39.0078 -109.1369 79° East 487 560 43,000  Level Denver Center
Thu 12:41:12 PM 39.0328 -108.9664 79° East 487 560 43,000  Level Denver Center
Thu 12:42:14 PM 39.0622 -108.7825 78° East 487 560 43,000  Level Denver Center
Thu 12:43:16 PM 39.0969 -108.6161 75° East 480 552 43,000  Level Denver Center
Thu 12:44:18 PM 39.1269 -108.4614 76° East 490 564 43,000  Level Denver Center
Thu 12:45:20 PM 39.1700 -108.2592 75° East 493 567 43,000  Level Denver Center
Thu 12:46:22 PM 39.2039 -108.0911 75° East 484 557 43,000  Level Denver Center
Thu 12:47:25 PM 39.2381 -107.9239 75° East 483 556 43,000  Level Denver Center
Thu 12:48:27 PM 39.2711 -107.7544 76° East 482 555 43,000  Level Denver Center
Thu 12:50:31 PM 39.3386 -107.4147 78° East 488 562 43,000  Level Denver Center
Thu 12:51:33 PM 39.3725 -107.2400 76° East 498 573 43,000  Level Denver Center
Thu 12:52:35 PM 39.4050 -107.0717 76° East 490 564 43,000  Level Denver Center
Thu 12:53:37 PM 39.4400 -106.8572 78° East 491 565 43,000  Level Denver Center
Thu 12:54:39 PM 39.4639 -106.6847 80° East 494 568 43,000  Level Denver Center
Thu 12:55:41 PM 39.4847 -106.5100 81° East 495 570 43,000  Level Denver Center
Thu 12:56:43 PM 39.5078 -106.3169 81° East 491 565 43,000  Level Denver Center
Thu 12:57:46 PM 39.5269 -106.1550 81° East 489 563 43,000  Level Denver Center
Thu 12:58:48 PM 39.5450 -105.9800 82° East 490 564 43,000  Level Denver Center
Thu 12:59:50 PM 39.5700 -105.7706 81° East 490 564 43,000  Level Denver Center
Thu 01:00:52 PM 39.5883 -105.5944 82° East 494 568 43,000  Level Denver Center
Thu 01:01:54 PM 39.6072 -105.4194 82° East 492 566 43,000  Level Denver Center
Thu 01:02:56 PM 39.6183 -105.2447 85° East 489 563 43,000  Level Denver Center
Thu 01:03:58 PM 39.6083 -105.0664 94° East 493 567 43,000  Level Denver Center
Thu 01:06:02 PM 39.5867 -104.6939 94° East 490 564 43,000  Level Denver Center
Thu 01:07:04 PM 39.5789 -104.5100 93° East 502 578 43,000  Level Denver Center
Thu 01:08:07 PM 39.5697 -104.3378 94° East 493 567 43,000  Level Denver Center
Thu 01:09:09 PM 39.5569 -104.1278 94° East 491 565 43,000  Level Denver Center
Thu 01:10:11 PM 39.5467 -103.9528 94° East 490 564 43,000  Level Denver Center
Thu 01:11:13 PM 39.5361 -103.7775 94° East 489 563 43,000  Level Denver Center
Thu 01:12:15 PM 39.5242 -103.6017 95° East 490 564 43,000  Level Denver Center
Thu 01:13:18 PM 39.5131 -103.4264 95° East 490 564 43,000  Level Denver Center
Thu 01:14:20 PM 39.5019 -103.2508 95° East 490 564 43,000  Level Denver Center
Thu 01:15:22 PM 39.4875 -103.0386 95° East 492 566 43,000  Level Denver Center
Thu 01:16:24 PM 39.4750 -102.8625 95° East 492 566 43,000  Level Denver Center
Thu 01:18:39 PM 39.4469 -102.4892 95° East 493 567 43,000  Level Kansas City Center
Thu 01:19:30 PM 39.4358 -102.3089 95° East 492 566 43,000  Level Denver Center
Thu 01:20:32 PM 39.4217 -102.1375 96° East 494 568 43,000  Level Denver Center
Thu 01:21:35 PM 39.4058 -101.9372 96° East 503 579 43,000  Level Denver Center
Thu 01:22:37 PM 39.3933 -101.7647 95° East 503 579 43,000  Level Denver Center
Thu 01:23:39 PM 39.3761 -101.5625 96° East 508 585 43,000  Level Denver Center
Thu 01:24:41 PM 39.3622 -101.3886 96° East 509 586 43,000  Level Denver Center
Thu 01:25:43 PM 39.3450 -101.1842 96° East 512 589 43,000  Level Denver Center
Thu 01:26:45 PM 39.3292 -101.0081 97° East 514 592 43,000  Level Denver Center
Thu 01:27:47 PM 39.3108 -100.8044 97° East 514 592 43,000  Level Denver Center
Thu 01:28:49 PM 39.2956 -100.6311 96° East 514 592 43,000  Level Denver Center
Thu 01:29:51 PM 39.2800 -100.4594 97° East 508 585 43,000  Level Denver Center
Thu 01:30:54 PM 39.2614 -100.2617 97° East 504 580 43,000  Level Denver Center
Thu 01:31:56 PM 39.2619 -100.0908 90° East 502 578 43,000  Level Denver Center
Thu 01:32:58 PM 39.2672 -99.8925 88° East 500 575 43,000  Level Denver Center
Thu 01:35:02 PM 39.2761 -99.5228 88° East 499 574 43,000  Level Denver Center
Thu 01:36:04 PM 39.2789 -99.3486 89° East 500 575 43,000  Level Denver Center
Thu 01:37:06 PM 39.2828 -99.1472 89° East 502 578 43,000  Level Denver Center
Thu 01:38:08 PM 39.2872 -98.9508 88° East 504 580 43,000  Level Denver Center
Thu 01:39:10 PM 39.2903 -98.7711 89° East 504 580 43,000  Level Denver Center
Thu 01:40:13 PM 39.2931 -98.5914 89° East 503 579 43,000  Level Denver Center
Thu 01:41:24 PM 39.2967 -98.3736 89° East 509 586 43,000  Level Kansas City Center
Thu 01:42:25 PM 39.2969 -98.1981 90° East 505 581 43,000  Level Kansas City Center
Thu 01:43:28 PM 39.2994 -98.0194 89° East 500 575 43,000  Level Kansas City Center
Thu 01:44:29 PM 39.3008 -97.8319 89° East 509 586 43,000  Level Kansas City Center
Thu 01:46:34 PM 39.3053 -97.4356 89° East 504 580 43,000  Level Kansas City Center
Thu 01:47:35 PM 39.3053 -97.2531 90° East 504 580 43,000  Level Kansas City Center
Thu 01:48:39 PM 39.3067 -97.0683 89° East 510 587 43,000  Level Kansas City Center
Thu 01:49:40 PM 39.3064 -96.8839 90° East 511 588 43,000  Level Kansas City Center
Thu 01:50:41 PM 39.3078 -96.6981 89° East 513 590 43,000  Level Kansas City Center
Thu 01:51:44 PM 39.3064 -96.5139 91° East 514 592 43,000  Level Kansas City Center
Thu 01:52:46 PM 39.3050 -96.3206 90° East 514 592 43,000  Level Kansas City Center
Thu 01:53:46 PM 39.3025 -96.1061 91° East 522 601 43,000  Level Kansas City Center
Thu 01:54:50 PM 39.3008 -95.9197 91° East 522 601 43,000  Level Kansas City Center
Thu 01:56:54 PM 39.2978 -95.5472 91° East 519 597 43,000  Level Kansas City Center
Thu 01:57:56 PM 39.2936 -95.3364 91° East 527 606 43,000  Level Kansas City Center
Thu 02:01:02 PM 39.2850 -94.7806 95° East 522 601 43,000  Level Kansas City Center
Thu 02:02:03 PM 39.2706 -94.5528 95° East 532 612 43,000  Level Kansas City Center
Thu 02:04:07 PM 39.2383 -94.1803 96° East 524 603 43,000  Level Kansas City Center
Thu 02:05:10 PM 39.2222 -93.9939 96° East 524 603 43,000  Level Kansas City Center
Thu 02:06:00 PM 39.2115 -93.9588 95° East  Level FlightAware Approximate
Thu 02:06:14 PM 39.2053 -93.8081 97° East 524 603 43,000  Level Kansas City Center
Thu 02:07:15 PM 39.1878 -93.6208 97° East 524 603 43,000  Level Kansas City Center
Thu 02:08:15 PM 39.1708 -93.4078 96° East 526 605 43,000  Level Kansas City Center
Thu 02:09:19 PM 39.1531 -93.2222 97° East 526 605 43,000  Level Kansas City Center
Thu 02:10:21 PM 39.1344 -93.0342 97° East 531 611 43,000  Level Kansas City Center
Thu 02:11:24 PM 39.1128 -92.8119 97° East 531 611 43,000  Level Kansas City Center
Thu 02:12:23 PM 39.0950 -92.6350 97° East 530 610 43,000  Level Kansas City Center
Thu 02:13:27 PM 39.0750 -92.4464 98° East 530 610 43,000  Level Kansas City Center
Thu 02:14:29 PM 39.0556 -92.2575 97° East 530 610 43,000  Level Kansas City Center
Thu 02:15:30 PM 39.0325 -92.0303 97° East 530 610 43,000  Level Kansas City Center
Thu 02:16:33 PM 39.0119 -91.8386 98° East 531 611 43,000  Level Kansas City Center
Thu 02:18:38 PM 38.9717 -91.4581 98° East 533 613 43,000  Level Kansas City Center
Thu 02:19:39 PM 38.9517 -91.2708 98° East 533 613 43,000  Level Kansas City Center
Thu 02:20:43 PM 38.9292 -91.0819 99° East 533 613 43,000  Level Kansas City Center
Thu 02:21:44 PM 38.9081 -90.8917 98° East 533 613 43,000  Level Kansas City Center
Thu 02:22:44 PM 38.8867 -90.7014 98° East 534 615 43,000  Level Kansas City Center
Thu 02:23:49 PM 38.8614 -90.4911 99° East 534 615 43,000  Level Kansas City Center
Thu 02:24:50 PM 38.8364 -90.3069 100° East 534 615 43,000  Level Kansas City Center
Thu 02:25:53 PM 38.8050 -90.0772 100° East 542 624 43,000  Level Kansas City Center
Thu 02:26:54 PM 38.7800 -89.8894 100° East 545 627 43,000  Level Kansas City Center
Thu 02:28:42 PM 38.7294 -89.5308 100° East 545 627 43,000  Level Indianapolis Center
Thu 02:29:44 PM 38.7050 -89.3392 99° East 545 627 43,000  Level Indianapolis Center
Thu 02:30:46 PM 38.6767 -89.1486 101° East 545 627 43,000  Level Indianapolis Center
Thu 02:31:48 PM 38.6494 -88.9572 100° East 545 627 43,000  Level Indianapolis Center
Thu 02:32:49 PM 38.6197 -88.7683 101° East 545 627 43,000  Level Indianapolis Center
Thu 02:33:51 PM 38.5917 -88.5767 101° East 545 627 43,000  Level Indianapolis Center
Thu 02:34:53 PM 38.5628 -88.3833 101° East 548 631 43,000  Level Indianapolis Center
Thu 02:35:55 PM 38.5289 -88.1539 101° East 549 632 43,000  Level Indianapolis Center
Thu 02:36:57 PM 38.4994 -87.9619 101° East 549 632 43,000  Level Indianapolis Center
Thu 02:37:59 PM 38.4692 -87.7717 101° East 548 631 43,000  Level Indianapolis Center
Thu 02:39:01 PM 38.4475 -87.5808 98° East 544 626 43,000  Level Indianapolis Center
Thu 02:41:05 PM 38.4503 -87.1925 89° East 543 625 43,000  Level Indianapolis Center
Thu 02:42:07 PM 38.4503 -86.9772 90° East 543 625 43,000  Level Indianapolis Center
Thu 02:43:09 PM 38.4519 -86.7936 89° East 544 626 43,000  Level Indianapolis Center
Thu 02:44:11 PM 38.4511 -86.5997 90° East 544 626 43,000  Level Indianapolis Center
Thu 02:45:13 PM 38.4503 -86.4053 90° East 544 626 43,000  Level Indianapolis Center
Thu 02:46:15 PM 38.4500 -86.1728 90° East 545 627 43,000  Level Indianapolis Center
Thu 02:48:19 PM 38.4483 -85.7894 90° East 540 621 43,000  Level Indianapolis Center
Thu 02:49:21 PM 38.4472 -85.5978 90° East 541 623 43,000  Level Indianapolis Center
Thu 02:50:23 PM 38.4447 -85.4072 91° East 540 621 43,000  Level Indianapolis Center
Thu 02:52:27 PM 38.4400 -84.9856 91° East 540 621 43,000  Level Indianapolis Center
Thu 02:53:29 PM 38.4372 -84.7933 91° East 541 623 43,000 -387 Level Indianapolis Center
Thu 02:55:00 PM 38.4310 -84.5342 92° East  Level FlightAware Approximate
Thu 02:56:35 PM 38.4261 -84.2086 92° East 548 631 41,400  Level Indianapolis Center
Thu 02:57:37 PM 38.4214 -84.0169 92° East 544 626 39,500 -1,887 Descending Indianapolis Center
Thu 02:58:39 PM 38.4150 -83.7872 92° East 550 633 37,500 -1,210 Descending Indianapolis Center
Thu 02:59:41 PM 38.4108 -83.5833 91° East 562 647 37,000 -532 Descending Indianapolis Center
Thu 03:00:43 PM 38.4050 -83.3792 92° East 569 655 36,400 -774 Descending Indianapolis Center
Thu 03:01:45 PM 38.3994 -83.1761 92° East 570 656 35,400 -677 Descending Indianapolis Center
Thu 03:02:47 PM 38.3931 -82.9686 92° East 574 661 35,000 -629 Descending Indianapolis Center
Thu 03:03:49 PM 38.3858 -82.7625 92° East 576 663 34,100 -1,161 Descending Indianapolis Center
Thu 03:04:51 PM 38.3778 -82.5278 92° East 572 658 32,600 -1,065 Descending Indianapolis Center
Thu 03:05:53 PM 38.3714 -82.3450 92° East 574 661 31,900 -1,129 Descending Indianapolis Center
Thu 03:07:57 PM 38.3547 -81.8983 95° East 577 664 29,100 -1,452 Descending Indianapolis Center
Thu 03:08:59 PM 38.3397 -81.7028 96° East 566 651 27,400 -1,645 Descending Indianapolis Center
Thu 03:10:01 PM 38.3086 -81.5117 102° East 562 647 25,700 -878 Descending Indianapolis Center
Thu 03:11:43 PM 38.2567 -81.2031 102° East 545 627 25,000 -258 Descending Washington Center
Thu 03:12:44 PM 38.2275 -81.0211 101° East 526 605 25,000  Level Washington Center
Thu 03:13:45 PM 38.2000 -80.8475 101° East 515 593 25,000  Level Washington Center
Thu 03:15:43 PM 38.1419 -80.4922 102° East 514 592 25,000  Level Washington Center
Thu 03:16:44 PM 38.1117 -80.3133 102° East 514 592 25,000  Level Washington Center
Thu 03:17:45 PM 38.0831 -80.1347 101° East 514 592 25,000  Level Washington Center
Thu 03:18:43 PM 38.0503 -79.9533 103° East 514 592 25,000  Level Washington Center
Thu 03:19:44 PM 38.0211 -79.7778 102° East 514 592 25,000  Level Washington Center
Thu 03:20:43 PM 37.9917 -79.5969 102° East 514 592 25,000  Level Washington Center
Thu 03:21:45 PM 37.9578 -79.4186 103° East 519 597 25,000  Level Washington Center
Thu 03:22:45 PM 37.9261 -79.2378 102° East 519 597 25,000  Level Washington Center
Thu 03:23:43 PM 37.8917 -79.0625 104° East 513 590 25,000  Level Washington Center
Thu 03:24:44 PM 37.8422 -78.8919 110° East 518 596 25,000  Level Washington Center
Thu 03:25:45 PM 37.7944 -78.7269 110° East 513 590 25,000  Level Washington Center
Thu 03:26:45 PM 37.7467 -78.5594 110° East 513 590 25,000 -966 Level Washington Center
Thu 03:27:43 PM 37.6964 -78.3922 111° Southeast 513 590 23,100 -2,017 Descending Washington Center
Thu 03:28:44 PM 37.6500 -78.2306 110° East 508 585 21,000 -1,033 Descending Washington Center
Thu 03:29:45 PM 37.6156 -78.0797 106° East 501 577 21,000 -807 Level Washington Center
Thu 03:30:43 PM 37.5903 -77.8850 99° East 476 548 19,400 -1,664 Descending Washington Center
Thu 03:31:44 PM 37.5706 -77.7194 98° East 476 548 17,700 -1,686 Descending Washington Center
Thu 03:32:44 PM 37.5522 -77.5592 98° East 464 534 16,000 -1,587 Descending Washington Center
Thu 03:33:45 PM 37.5339 -77.4067 99° East 464 534 14,500 -1,570 Descending Washington Center
Thu 03:34:31 PM 37.5169 -77.2806 100° East 439 505 13,200 -1,552 Descending Washington Center
Thu 03:34:43 PM 37.5153 -77.2517 94° East 452 520 13,000 -162 Descending Washington Center
Thu 03:35:45 PM 37.4942 -77.1022 100° East 442 509 13,000 -81 Level Washington Center
Thu 03:35:57 PM 37.4947 -77.0733 89° East 440 506 12,900 -400 Descending Washington Center
Thu 03:36:45 PM 37.4792 -76.9736 101° East 424 488 12,600 -492 Descending Washington Center
Thu 03:36:58 PM 37.4733 -76.9264 99° East 405 466 12,400 -828 Descending Washington Center
Thu 03:37:43 PM 37.4578 -76.8214 101° East 404 465 11,800 -800 Descending Washington Center
Thu 03:37:58 PM 37.4561 -76.7925 94° East 394 453 11,600 -900 Descending Washington Center
Thu 03:38:43 PM 37.4297 -76.7139 113° Southeast 392 451 10,900 -1,180 Descending Washington Center
Thu 03:38:59 PM 37.4175 -76.6847 118° Southeast 314 361 10,400 -1,770 Descending Washington Center
Thu 03:39:44 PM 37.3889 -76.6192 119° Southeast 327 376 9,100 -2,200 Descending Washington Center
Thu 03:39:59 PM 37.3744 -76.5875 120° Southeast 295 339 8,200 -2,034 Descending Washington Center
Thu 03:40:43 PM 37.3519 -76.5272 115° Southeast 313 360 7,100 -1,821 Descending Washington Center
Thu 03:40:55 PM 37.3397 -76.5036 123° Southeast 292 336 6,500 -1,869 Descending Washington Center
Thu 03:41:44 PM 37.3131 -76.4431 119° Southeast 290 334 5,200 -2,092 Descending Washington Center
Thu 03:42:44 PM 37.2739 -76.3539 119° Southeast 266 306 2,700 -1,650 Descending Washington Center
Thu 03:43:44 PM 37.2367 -76.3014 132° Southeast 256 295 1,900 -393 Descending Washington Center
Thu 03:44:46 PM 37.1967 -76.3636 231° Southwest 198 228 1,900 -295 Level Washington Center
Thu 03:45:46 PM 37.1714 -76.4103 236° Southwest 148 170 1,300 -712 Descending Washington Center
Thu 03:46:44 PM 37.1481 -76.4569 238° Southwest 145 167 500 -828 Descending Washington Center

Login

Don't have an account? Register now (free) for customized features, flight alerts, and more!